• Join FlightAware (Why Join?)
  • Login
  • US Flag GB Flag 
17:31 EDT


 

Airport Tracker/Info


-or-


 

Live Flight TrackerFlight Track Log ✈ CPZ5714 ✈ 22-Aug-2013 ✈ KMSP - KALB

Flight Track Log - Related Links

Times and Time Zones

All times are in EDT time to prevent confusion due to time zone crossing. See the CPZ5714 flight status page for this flight to view local times or setup timezone preferences in your user account.

Time Position Orientation Groundspeed Altitude Reporting Facility
EDT Latitude Longitude Course Direction KTS MPH feet Rate Location/Type
22:30 44.8667 -93.1500 65° Northeast 161 185 2,300  Level Minneapolis TRACON
22:31 44.8625 -93.1119 99° East 172 198 3,300 1,740 Climbing Minneapolis Center
22:32 44.9069 -93.0575 41° Northeast 242 278 5,300 1,800 Climbing Minneapolis Center
22:33 44.9811 -93.0378 11° North 271 312 7,000 2,220 Climbing Minneapolis Center
22:34 45.0531 -92.9933 24° Northeast 291 335 9,900 2,400 Climbing Minneapolis Center
22:35 45.1401 -92.2232 70° East  Level FlightAware Approximate
22:35 45.1067 -92.9017 50° Northeast 302 348 11,900  Level Minneapolis Center
22:36 45.1858 -92.0593 65° Northeast  Level FlightAware Approximate
22:36 45.1689 -92.7944 51° Northeast 351 404 13,800  Level Minneapolis Center
22:37 45.2336 -92.6825 51° Northeast 366 421 15,900 1,920 Climbing Minneapolis Center
22:38 45.2675 -92.5400 71° East 390 449 17,800 1,800 Climbing Minneapolis Center
22:39 45.2889 -92.3878 79° East 393 452 19,600 1,740 Climbing Minneapolis Center
22:40 45.3092 -92.1939 81° East 413 475 21,400 1,560 Climbing Minneapolis Center
22:41 45.2986 -92.0178 95° East 443 510 22,800 1,380 Climbing Minneapolis Center
22:42 45.2889 -91.8414 94° East 450 518 24,300 1,200 Climbing Minneapolis Center
22:43 45.2778 -91.6600 95° East 460 529 25,300 960 Climbing Minneapolis Center
22:44 45.2669 -91.4714 95° East 472 543 26,300 960 Climbing Minneapolis Center
22:45 45.2542 -91.2792 95° East 484 557 27,300 960 Climbing Minneapolis Center
22:46 45.2425 -91.0817 95° East 493 567 28,300 780 Climbing Minneapolis Center
22:47 45.2303 -90.8831 95° East 502 578 29,000 840 Climbing Minneapolis Center
22:48 45.2169 -90.6811 95° East 514 592 30,100 960 Climbing Minneapolis Center
22:49 45.2028 -90.4794 96° East 517 595 31,000 420 Climbing Minneapolis Center
22:50 45.1883 -90.2781 96° East 517 595 31,000  Level Minneapolis Center
22:51 45.1711 -90.0369 96° East 516 594 31,000  Level Minneapolis Center
22:52 45.1572 -89.8328 95° East 521 600 31,000  Level Minneapolis Center
22:53 45.1411 -89.6300 96° East 522 601 31,000  Level Minneapolis Center
22:54 45.1244 -89.4256 97° East 525 604 31,000  Level Minneapolis Center
22:56 45.1089 -89.2194 96° East 529 609 31,000  Level Minneapolis Center
22:57 45.0917 -89.0150 97° East 528 608 31,000  Level Minneapolis Center
22:58 45.0756 -88.8081 96° East 532 612 31,000  Level Minneapolis Center
22:59 45.0561 -88.5878 97° East 527 606 31,000  Level Minneapolis Center
23:00 45.0383 -88.3822 97° East 527 606 31,000  Level Minneapolis Center
23:01 45.0200 -88.1764 97° East 530 610 31,000  Level Minneapolis Center
23:02 45.0011 -87.9694 97° East 531 611 31,000  Level Minneapolis Center
23:03 44.9836 -87.7631 97° East 531 611 31,000  Level Minneapolis Center
23:04 44.9600 -87.5147 98° East 533 613 31,000  Level Minneapolis Center
23:05 44.9344 -87.2658 98° East 533 613 31,000  Level Minneapolis Center
23:06 44.9139 -87.0586 98° East 533 613 31,000  Level Minneapolis Center
23:07 44.8936 -86.8511 98° East 535 616 31,000  Level Minneapolis Center
23:08 44.8708 -86.6264 98° East 539 620 31,000  Level Minneapolis Center
23:09 44.8486 -86.4175 98° East 540 621 31,000  Level Minneapolis Center
23:10 44.8261 -86.2094 99° East 539 620 31,000  Level Minneapolis Center
23:11 44.8044 -86.0025 98° East 536 617 31,000  Level Minneapolis Center
23:12 44.7817 -85.7939 99° East 538 619 31,000  Level Minneapolis Center
23:13 44.7589 -85.5842 99° East 537 618 31,000  Level Minneapolis Center
23:14 44.7353 -85.3775 99° East 537 618 31,000  Level Minneapolis Center
23:15 44.7108 -85.1708 99° East 537 618 31,000  Level Minneapolis Center
23:16 44.6911 -85.0042 99° East 538 619 31,000  Level Minneapolis Center
23:17 44.6625 -84.7569 99° East 538 619 31,000  Level Minneapolis Center
23:18 44.6383 -84.5494 99° East 539 620 31,000  Level Minneapolis Center
23:19 44.6075 -84.3014 100° East 539 620 31,000  Level Minneapolis Center
23:20 44.5806 -84.0956 100° East 538 619 31,000  Level Minneapolis Center
23:21 44.5536 -83.8908 100° East 537 618 31,000  Level Minneapolis Center
23:22 44.5278 -83.6869 100° East 535 616 31,000  Level Minneapolis Center
23:23 44.5006 -83.4833 101° East 535 616 31,000  Level Minneapolis Center
23:24 44.4753 -83.2778 100° East 536 617 31,000  Level Minneapolis Center
23:25 44.4483 -83.0739 100° East 536 617 31,000  Level Minneapolis Center
23:26 44.4192 -82.8711 101° East 533 613 31,000  Level Minneapolis Center
23:27 44.3667 -82.6833 111° Southeast 540 621 31,000  Level Toronto Center
23:28 44.3500 -82.4833 97° East 540 621 31,000  Level Toronto Center
23:29 44.3167 -82.2667 102° East 540 621 31,000  Level Toronto Center
23:30 44.2667 -82.0833 111° Southeast 530 610 31,000  Level Toronto Center
23:31 44.2333 -81.8833 103° East 540 621 31,000  Level Toronto Center
23:32 44.1833 -81.6833 109° East 540 621 31,000  Level Toronto Center
23:33 44.1333 -81.4833 109° East 540 621 31,000  Level Toronto Center
23:34 44.0833 -81.2833 109° East 540 621 31,000  Level Toronto Center
23:35 44.0333 -81.1000 111° Southeast 540 621 31,000  Level Toronto Center
23:36 43.9833 -80.9000 109° East 540 621 31,000  Level Toronto Center
23:37 43.9500 -80.7167 104° East 540 621 31,000  Level Toronto Center
23:38 43.8833 -80.5167 115° Southeast 540 621 31,000  Level Toronto Center
23:39 43.8333 -80.3333 111° Southeast 530 610 31,000  Level Toronto Center
23:40 43.7833 -80.1167 108° East 530 610 31,000  Level Toronto Center
23:41 43.7333 -79.9333 111° Southeast 530 610 31,000  Level Toronto Center
23:42 43.6833 -79.7500 111° Southeast 520 598 31,000  Level Toronto Center
23:43 43.6500 -79.5667 104° East 530 610 31,000  Level Toronto Center
23:44 43.6167 -79.3500 102° East 530 610 31,000  Level Toronto Center
23:45 43.5833 -79.1500 103° East 520 598 31,000  Level Toronto Center
23:46 43.5667 -78.9500 96° East 530 610 31,000  Level Toronto Center
23:47 43.5333 -78.7667 104° East 530 610 31,000  Level Toronto Center
23:48 43.5167 -78.5500 96° East 520 598 31,000  Level Toronto Center
23:49 43.4667 -78.3667 111° Southeast 520 598 31,000  Level Toronto Center
23:50 43.4722 -78.2433 86° East 524 603 31,000  Level Cleveland Center
23:51 43.4433 -78.0472 101° East 524 603 31,000  Level Cleveland Center
23:52 43.4133 -77.8369 101° East 519 597 31,000 -60 Level Cleveland Center
23:53 43.3836 -77.6411 102° East 519 597 30,900 -720 Descending Cleveland Center
23:54 43.3558 -77.4511 101° East 519 597 29,600 -600 Descending Cleveland Center
23:56 43.2833 -77.0000 102° East 520 598 29,000 -540 Descending Toronto Center
23:57 43.2500 -76.8000 103° East 520 598 28,000 -960 Descending Toronto Center
23:58 43.2167 -76.6167 104° East 510 587 27,100 -900 Descending Toronto Center
23:59 43.1833 -76.4167 103° East 500 575 26,200 -960 Descending Toronto Center
00:00 43.1842 -76.3389 89° East 500 575 25,500 -960 Descending Boston Center
00:01 43.1547 -76.1575 102° East 493 567 24,700 -840 Descending Boston Center
00:02 43.1269 -75.9850 102° East 485 558 23,900 -780 Descending Boston Center
00:03 43.0989 -75.8100 102° East 473 544 23,200 -840 Descending Boston Center
00:04 43.0703 -75.6378 103° East 462 532 22,300 -1,380 Descending Boston Center
00:05 43.0417 -75.4658 103° East 462 532 20,500 -1,860 Descending Boston Center
00:06 43.0125 -75.3025 104° East 455 524 18,700 -1,800 Descending Boston Center
00:07 42.9872 -75.1453 102° East 444 511 16,900 -1,800 Descending Boston Center
00:08 42.9594 -74.9908 104° East 432 497 15,200 -1,680 Descending Boston Center
00:09 42.9336 -74.8422 103° East 409 471 13,600 -1,680 Descending Boston Center
00:10 42.9075 -74.6967 104° East 397 457 11,900 -1,320 Descending Boston Center
00:11 42.8831 -74.5567 103° East 386 444 11,000 -1,080 Descending Boston Center
00:12 42.8622 -74.4372 103° East 336 387 9,800 -1,380 Descending Boston Center
00:13 42.8433 -74.3203 102° East 319 367 8,200 -1,800 Descending Boston Center
00:14 42.8222 -74.2092 104° East 302 348 6,300 -1,860 Descending Boston Center
00:15 42.8050 -74.1125 104° East 295 339 4,500 -1,680 Descending Boston Center
00:16 42.7875 -74.0158 104° East 281 323 3,000 -780 Descending Boston Center
00:17 42.7700 -73.9250 105° East 265 305 3,000  Level Boston Center
00:18 42.7058 -73.8922 159° South 218 251 3,000 -300 Level Boston Center
00:19 42.6414 -73.8711 166° South 223 257 2,500 -540 Descending Boston Center
00:20 42.6025 -73.8167 134° Southeast 223 257 2,000 -360 Descending Boston Center
00:20 42.6236 -73.7917 41° Northeast 176 203 2,000  Level Boston Center
00:21 42.6178 -73.7744 115° Southeast 152 175 2,000 -420 Level Boston Center
00:21 42.6672 -73.8039 336° Northwest 147 169 1,600 -780 Descending Boston Center
00:22 42.7028 -73.8075 356° North 124 143 900 -780 Descending Boston Center